Pietro Novelli — IOTQ — position and weather

sailwx.info

Track history (hours):
 
Tides and Currents Weather Stations Pressure Air Temp Water Temp Dewpoint Dewpoint Depression Visibility Wind Speed Wind Dir Waves Ship Positions

Pietro Novelli

Last reported at 2016-Jun-27 10:29 UTC. Time now 2016-Jun-27 11:32 UTC.
Position N 38°33' E 014°31'.

Length 91 m; draft 3.7 m.

Type: Ship. MMSI: 247000300.

Date/timePositionNaut miles runAvg speedWind from/ knotsBaromVisibWave heightAir tempDewpointWater temp
2016-Jun-27 10:29N 38°33' E 014°31'8 8.1
2016-Jun-27 09:33N 38°34' E 014°40'10 9.8
2016-Jun-27 08:33N 38°33' E 014°53'7 6.9
2016-Jun-27 07:34N 38°28' E 014°59'3 3.4
2016-Jun-27 06:32N 38°25' E 014°58'1414.0
2016-Jun-27 05:33N 38°18' E 015°13'5 5.2
2016-Jun-27 04:34N 38°13' E 015°15'0 0.0
2016-Jun-27 03:33N 38°13' E 015°15'0 0.0
2016-Jun-27 02:33N 38°13' E 015°15'0 0.0
2016-Jun-27 01:34N 38°13' E 015°15'0 0.0
2016-Jun-27 00:34N 38°13' E 015°15'0 0.0
2016-Jun-26 23:34N 38°13' E 015°15'0 0.0
2016-Jun-26 22:33N 38°13' E 015°15'0 0.0
2016-Jun-26 21:34N 38°13' E 015°15'0 0.0
2016-Jun-26 20:33N 38°13' E 015°15'0 0.0
2016-Jun-26 19:34N 38°13' E 015°15'0 0.0
2016-Jun-26 18:34N 38°13' E 015°15'1 0.5
2016-Jun-26 17:33N 38°13' E 015°15'1212.4
2016-Jun-26 16:33N 38°22' E 015°05'8 8.1
2016-Jun-26 15:33N 38°28' E 014°58'4 4.2
2016-Jun-26 14:33N 38°32' E 014°57'9 7.4
2016-Jun-26 13:17N 38°33' E 014°45'8 9.9
2016-Jun-26 12:30N 38°34' E 014°35'2 0.7
2016-Jun-26 10:17N 38°33' E 014°33'14 8.1
2016-Jun-26 08:33N 38°32' E 014°51'7 6.8
2016-Jun-26 07:33N 38°29' E 014°59'4 4.0
2016-Jun-26 06:30N 38°25' E 014°58'1314.2
2016-Jun-26 05:33N 38°18' E 015°13'6 5.5
2016-Jun-26 04:33N 38°13' E 015°15'0 0.0
2016-Jun-26 03:33N 38°13' E 015°15'0 0.0
2016-Jun-26 02:33N 38°13' E 015°15'0 0.0
2016-Jun-26 01:33N 38°13' E 015°15'0 0.0
2016-Jun-26 00:32N 38°13' E 015°15'0 0.0
2016-Jun-25 23:33N 38°13' E 015°15'0 0.0
2016-Jun-25 22:33N 38°13' E 015°15'0 0.0
2016-Jun-25 21:33N 38°13' E 015°15'0 0.0
2016-Jun-25 20:33N 38°13' E 015°15'0 0.0
2016-Jun-25 19:33N 38°13' E 015°15'0 0.0
2016-Jun-25 18:33N 38°13' E 015°15'0 0.4
2016-Jun-25 17:34N 38°13' E 015°15'1212.0
2016-Jun-25 16:33N 38°22' E 015°05'8 8.4
2016-Jun-25 15:33N 38°28' E 014°58'4 4.2
2016-Jun-25 14:33N 38°32' E 014°56'17 8.0
2016-Jun-25 12:29N 38°34' E 014°35'14 3.4
2016-Jun-25 08:30N 38°33' E 014°53'7 6.9
2016-Jun-25 07:33N 38°28' E 014°58'3 3.1
2016-Jun-25 06:33N 38°25' E 014°58'1413.8
2016-Jun-25 05:33N 38°18' E 015°13'5 5.4
2016-Jun-25 04:33N 38°13' E 015°15'0 0.0
2016-Jun-25 03:33N 38°13' E 015°15'0 0.0
2016-Jun-25 02:33N 38°13' E 015°15'0 0.0
2016-Jun-25 01:33N 38°13' E 015°15'0 0.0
2016-Jun-25 00:33N 38°13' E 015°15'0 0.0
2016-Jun-24 23:33N 38°13' E 015°15'0 0.0
2016-Jun-24 22:33N 38°13' E 015°15'0 0.0
2016-Jun-24 21:33N 38°13' E 015°15'0 0.0
2016-Jun-24 20:33N 38°13' E 015°15'0 0.0
2016-Jun-24 19:33N 38°13' E 015°15'0 0.0
2016-Jun-24 18:33N 38°13' E 015°15'0 0.5
2016-Jun-24 17:34N 38°13' E 015°15'1212.1
2016-Jun-24 16:34N 38°22' E 015°05'9 8.5
2016-Jun-24 15:33N 38°28' E 014°58'4 3.7
2016-Jun-24 14:33N 38°32' E 014°57'6 5.2
2016-Jun-24 13:25N 38°37' E 015°02'5 6.2
2016-Jun-24 12:33N 38°41' E 015°06'9 9.5
2016-Jun-24 11:33N 38°48' E 015°15'3 2.7
2016-Jun-24 10:33N 38°47' E 015°11'10 9.5
2016-Jun-24 09:32N 38°38' E 015°05'1111.1
2016-Jun-24 08:33N 38°33' E 014°53'6 6.4
2016-Jun-24 07:34N 38°28' E 014°57'20 6.7
2016-Jun-24 04:33N 38°13' E 015°15'0 0.0
2016-Jun-24 03:33N 38°13' E 015°15'0 0.0
2016-Jun-24 02:33N 38°13' E 015°15'0 0.0
2016-Jun-24 01:33N 38°13' E 015°15'0 0.0
2016-Jun-24 00:33N 38°13' E 015°15'0 0.0
2016-Jun-23 23:33N 38°13' E 015°15'0 0.0
2016-Jun-23 22:33N 38°13' E 015°15'0 0.0
2016-Jun-23 21:33N 38°13' E 015°15'0 0.0
2016-Jun-23 20:33N 38°13' E 015°15'0 0.0
2016-Jun-23 19:33N 38°13' E 015°15'0 0.0
2016-Jun-23 18:33N 38°13' E 015°15'0 0.3
2016-Jun-23 17:33N 38°13' E 015°15'1211.6
2016-Jun-23 16:34N 38°22' E 015°05'9 8.9
2016-Jun-23 15:33N 38°28' E 014°57'4 3.8
2016-Jun-23 14:33N 38°32' E 014°57'4 0.6
2016-Jun-23 08:29N 38°33' E 014°53'6 6.6
2016-Jun-23 07:33N 38°28' E 014°58'17 8.3
2016-Jun-23 05:33N 38°18' E 015°14'5 4.6
2016-Jun-23 04:34N 38°13' E 015°15'0 0.0
2016-Jun-23 03:33N 38°13' E 015°15'0 0.0
2016-Jun-23 02:33N 38°13' E 015°15'0 0.0
2016-Jun-23 01:34N 38°13' E 015°15'0 0.0
2016-Jun-23 00:33N 38°13' E 015°15'0 0.0
2016-Jun-22 23:34N 38°13' E 015°15'0 0.0
2016-Jun-22 22:33N 38°13' E 015°15'0 0.0
2016-Jun-22 21:33N 38°13' E 015°15'0 0.0
2016-Jun-22 20:34N 38°13' E 015°15'0 0.0
2016-Jun-22 19:33N 38°13' E 015°15'0 0.0
2016-Jun-22 18:34N 38°13' E 015°15'0 0.2
2016-Jun-22 17:33N 38°13' E 015°15'1211.7
2016-Jun-22 16:33N 38°22' E 015°05'9 8.6
2016-Jun-22 15:33N 38°28' E 014°58'4 3.8
2016-Jun-22 14:33N 38°32' E 014°57'17 3.9
2016-Jun-22 10:13N 38°33' E 014°35'14 8.2
2016-Jun-22 08:33N 38°33' E 014°53'6 6.3
2016-Jun-22 07:33N 38°28' E 014°57'5 4.7
2016-Jun-22 06:34N 38°24' E 015°01'1413.7
2016-Jun-22 05:33N 38°17' E 015°15'4 3.7
2016-Jun-22 04:33N 38°13' E 015°15'0 0.3
2016-Jun-22 03:33N 38°13' E 015°15'0 0.0
2016-Jun-22 02:33N 38°13' E 015°15'0 0.0
2016-Jun-22 01:33N 38°13' E 015°15'0 0.0
2016-Jun-22 00:33N 38°13' E 015°15'0 0.0
2016-Jun-21 23:33N 38°13' E 015°15'0 0.0
2016-Jun-21 22:33N 38°13' E 015°15'0 0.0
2016-Jun-21 21:33N 38°13' E 015°15'0 0.0
2016-Jun-21 20:33N 38°13' E 015°15'0 0.3
2016-Jun-21 19:33N 38°13' E 015°15'0 0.1
2016-Jun-21 18:33N 38°13' E 015°15'1110.6
2016-Jun-21 17:34N 38°21' E 015°06'9 9.4
2016-Jun-21 16:33N 38°28' E 014°58'5 5.0
2016-Jun-21 15:33N 38°33' E 014°55'6 6.4
2016-Jun-21 14:33N 38°36' E 015°02'9 9.2
2016-Jun-21 13:33N 38°44' E 015°08'6 5.8
2016-Jun-21 12:30N 38°48' E 015°14'3 2.6
2016-Jun-21 11:31N 38°47' E 015°11'1010.1
2016-Jun-21 10:31N 38°38' E 015°05'9 9.3
2016-Jun-21 09:32N 38°34' E 014°55'2 1.8
2016-Jun-21 08:31N 38°33' E 014°52'6 6.7
2016-Jun-21 07:33N 38°28' E 014°57'3 3.2
2016-Jun-21 06:32N 38°25' E 014°58'17 8.9
2016-Jun-21 04:33N 38°13' E 015°15'0 0.0
2016-Jun-21 03:33N 38°13' E 015°15'0 0.0
2016-Jun-21 02:33N 38°13' E 015°15'0 0.0
2016-Jun-21 01:33N 38°13' E 015°15'0 0.0
2016-Jun-21 00:33N 38°13' E 015°15'0 0.0
2016-Jun-20 23:33N 38°13' E 015°15'0 0.0
2016-Jun-20 22:33N 38°13' E 015°15'0 0.0
2016-Jun-20 21:33N 38°13' E 015°15'0 0.0
2016-Jun-20 20:33N 38°13' E 015°15'0 0.0
2016-Jun-20 19:33N 38°13' E 015°15'0 0.0
2016-Jun-20 18:33N 38°13' E 015°15'0 0.1
2016-Jun-20 17:33N 38°13' E 015°15'1211.6
2016-Jun-20 16:34N 38°22' E 015°05'9 8.6
2016-Jun-20 15:33N 38°28' E 014°58'4 3.8
2016-Jun-20 14:34N 38°32' E 014°57'4 0.6
2016-Jun-20 08:21N 38°33' E 014°53'6 8.0
2016-Jun-20 07:33N 38°29' E 014°59'4 4.4
2016-Jun-20 06:33N 38°25' E 014°58'1414.0
2016-Jun-20 05:34N 38°18' E 015°13'5 4.8
2016-Jun-20 04:33N 38°13' E 015°15'0 0.0
2016-Jun-20 03:33N 38°13' E 015°15'0 0.0
2016-Jun-20 02:33N 38°13' E 015°15'0 0.0
2016-Jun-20 01:33N 38°13' E 015°15'0 0.0
2016-Jun-20 00:33N 38°13' E 015°15'0 0.0
2016-Jun-19 23:33N 38°13' E 015°15'0 0.0
2016-Jun-19 22:33N 38°13' E 015°15'0 0.0
2016-Jun-19 21:33N 38°13' E 015°15'0 0.0
2016-Jun-19 20:33N 38°13' E 015°15'0 0.0
2016-Jun-19 19:33N 38°13' E 015°15'0 0.0
2016-Jun-19 18:33N 38°13' E 015°15'1 0.7
2016-Jun-19 17:33N 38°13' E 015°15'1312.5
2016-Jun-19 16:33N 38°22' E 015°05'8 8.3
2016-Jun-19 15:33N 38°28' E 014°57'4 3.6
2016-Jun-19 14:33N 38°32' E 014°58'20 8.4
2016-Jun-19 12:13N 38°33' E 014°33'1 0.7
2016-Jun-19 10:20N 38°33' E 014°31'17 9.1
2016-Jun-19 08:27N 38°33' E 014°53'7 7.2
2016-Jun-19 07:33N 38°29' E 014°59'4 4.1
2016-Jun-19 06:33N 38°25' E 014°58'1413.8
2016-Jun-19 05:33N 38°18' E 015°13'5 5.2
2016-Jun-19 04:33N 38°13' E 015°15'0 0.0
2016-Jun-19 03:33N 38°13' E 015°15'0 0.0
2016-Jun-19 02:33N 38°13' E 015°15'0 0.0
2016-Jun-19 01:33N 38°13' E 015°14'0 0.0
2016-Jun-19 00:33N 38°13' E 015°15'0 0.0
2016-Jun-18 23:33N 38°13' E 015°15'0 0.0
2016-Jun-18 22:33N 38°13' E 015°15'0 0.0
2016-Jun-18 21:33N 38°13' E 015°15'0 0.0
2016-Jun-18 20:33N 38°13' E 015°15'0 0.0
2016-Jun-18 19:33N 38°13' E 015°15'0 0.0
2016-Jun-18 18:33N 38°13' E 015°15'0 0.2
2016-Jun-18 17:34N 38°13' E 015°15'1211.8
2016-Jun-18 16:33N 38°22' E 015°05'8 8.3
2016-Jun-18 15:33N 38°28' E 014°58'6 6.0
2016-Jun-18 14:33N 38°33' E 014°53'8 6.6
2016-Jun-18 13:17N 38°33' E 014°43'6 7.4
2016-Jun-18 12:30N 38°34' E 014°35'5 2.6
2016-Jun-18 10:33N 38°32' E 014°29'18 8.7
2016-Jun-18 08:27N 38°33' E 014°53'6 7.1
2016-Jun-18 07:33N 38°28' E 014°58'3 3.3
2016-Jun-18 06:34N 38°25' E 014°58'1414.1
2016-Jun-18 05:33N 38°18' E 015°14'5 5.2
2016-Jun-18 04:33N 38°13' E 015°15'0 0.0
2016-Jun-18 03:33N 38°13' E 015°15'0 0.0
2016-Jun-18 02:33N 38°13' E 015°15'0 0.0
2016-Jun-18 01:33N 38°13' E 015°15'0 0.0
2016-Jun-18 00:33N 38°13' E 015°15'0 0.0
2016-Jun-17 23:33N 38°13' E 015°15'0 0.0
2016-Jun-17 22:33N 38°13' E 015°15'0 0.0
2016-Jun-17 21:33N 38°13' E 015°15'0 0.0
2016-Jun-17 20:33N 38°13' E 015°15'0 0.0
2016-Jun-17 19:33N 38°13' E 015°15'0 0.0
2016-Jun-17 18:33N 38°13' E 015°15'9 8.7
2016-Jun-17 17:33N 38°20' E 015°08'10 9.5
2016-Jun-17 16:33N 38°25' E 014°58'4 3.9
2016-Jun-17 15:33N 38°29' E 014°59'6 6.0
2016-Jun-17 14:32N 38°33' E 014°53'11 9.7
2016-Jun-17 13:27N 38°38' E 015°05'1011.2
2016-Jun-17 12:32N 38°47' E 015°11'3 2.6
2016-Jun-17 11:33N 38°48' E 015°14'5 4.7
2016-Jun-17 10:32N 38°45' E 015°10'  
Track history (hours):
 
Tides and Currents Weather Stations Pressure Air Temp Water Temp Dewpoint Dewpoint Depression Visibility Wind Speed Wind Dir Waves Ship Positions

Pietro Novelli

Last reported at 2016-Jun-27 10:29 UTC. Time now 2016-Jun-27 11:32 UTC.
Position N 38°33' E 014°31'.

Length 91 m; draft 3.7 m.

Type: Ship. MMSI: 247000300.

Date/timePositionNaut miles runAvg speedWind from/ knotsBaromVisibWave heightAir tempDewpointWater temp
2016-Jun-27 10:29N 38°33' E 014°31'8 8.1
2016-Jun-27 09:33N 38°34' E 014°40'10 9.8
2016-Jun-27 08:33N 38°33' E 014°53'7 6.9
2016-Jun-27 07:34N 38°28' E 014°59'3 3.4
2016-Jun-27 06:32N 38°25' E 014°58'1414.0
2016-Jun-27 05:33N 38°18' E 015°13'5 5.2
2016-Jun-27 04:34N 38°13' E 015°15'0 0.0
2016-Jun-27 03:33N 38°13' E 015°15'0 0.0
2016-Jun-27 02:33N 38°13' E 015°15'0 0.0
2016-Jun-27 01:34N 38°13' E 015°15'0 0.0
2016-Jun-27 00:34N 38°13' E 015°15'0 0.0
2016-Jun-26 23:34N 38°13' E 015°15'0 0.0
2016-Jun-26 22:33N 38°13' E 015°15'0 0.0
2016-Jun-26 21:34N 38°13' E 015°15'0 0.0
2016-Jun-26 20:33N 38°13' E 015°15'0 0.0
2016-Jun-26 19:34N 38°13' E 015°15'0 0.0
2016-Jun-26 18:34N 38°13' E 015°15'1 0.5
2016-Jun-26 17:33N 38°13' E 015°15'1212.4
2016-Jun-26 16:33N 38°22' E 015°05'8 8.1
2016-Jun-26 15:33N 38°28' E 014°58'4 4.2
2016-Jun-26 14:33N 38°32' E 014°57'9 7.4
2016-Jun-26 13:17N 38°33' E 014°45'8 9.9
2016-Jun-26 12:30N 38°34' E 014°35'2 0.7
2016-Jun-26 10:17N 38°33' E 014°33'14 8.1
2016-Jun-26 08:33N 38°32' E 014°51'7 6.8
2016-Jun-26 07:33N 38°29' E 014°59'4 4.0
2016-Jun-26 06:30N 38°25' E 014°58'1314.2
2016-Jun-26 05:33N 38°18' E 015°13'6 5.5
2016-Jun-26 04:33N 38°13' E 015°15'0 0.0
2016-Jun-26 03:33N 38°13' E 015°15'0 0.0
2016-Jun-26 02:33N 38°13' E 015°15'0 0.0
2016-Jun-26 01:33N 38°13' E 015°15'0 0.0
2016-Jun-26 00:32N 38°13' E 015°15'0 0.0
2016-Jun-25 23:33N 38°13' E 015°15'0 0.0
2016-Jun-25 22:33N 38°13' E 015°15'0 0.0
2016-Jun-25 21:33N 38°13' E 015°15'0 0.0
2016-Jun-25 20:33N 38°13' E 015°15'0 0.0
2016-Jun-25 19:33N 38°13' E 015°15'0 0.0
2016-Jun-25 18:33N 38°13' E 015°15'0 0.4
2016-Jun-25 17:34N 38°13' E 015°15'1212.0
2016-Jun-25 16:33N 38°22' E 015°05'8 8.4
2016-Jun-25 15:33N 38°28' E 014°58'4 4.2
2016-Jun-25 14:33N 38°32' E 014°56'17 8.0
2016-Jun-25 12:29N 38°34' E 014°35'14 3.4
2016-Jun-25 08:30N 38°33' E 014°53'7 6.9
2016-Jun-25 07:33N 38°28' E 014°58'3 3.1
2016-Jun-25 06:33N 38°25' E 014°58'1413.8
2016-Jun-25 05:33N 38°18' E 015°13'5 5.4
2016-Jun-25 04:33N 38°13' E 015°15'0 0.0
2016-Jun-25 03:33N 38°13' E 015°15'0 0.0
2016-Jun-25 02:33N 38°13' E 015°15'0 0.0
2016-Jun-25 01:33N 38°13' E 015°15'0 0.0
2016-Jun-25 00:33N 38°13' E 015°15'0 0.0
2016-Jun-24 23:33N 38°13' E 015°15'0 0.0
2016-Jun-24 22:33N 38°13' E 015°15'0 0.0
2016-Jun-24 21:33N 38°13' E 015°15'0 0.0
2016-Jun-24 20:33N 38°13' E 015°15'0 0.0
2016-Jun-24 19:33N 38°13' E 015°15'0 0.0
2016-Jun-24 18:33N 38°13' E 015°15'0 0.5
2016-Jun-24 17:34N 38°13' E 015°15'1212.1
2016-Jun-24 16:34N 38°22' E 015°05'9 8.5
2016-Jun-24 15:33N 38°28' E 014°58'4 3.7
2016-Jun-24 14:33N 38°32' E 014°57'6 5.2
2016-Jun-24 13:25N 38°37' E 015°02'5 6.2
2016-Jun-24 12:33N 38°41' E 015°06'9 9.5
2016-Jun-24 11:33N 38°48' E 015°15'3 2.7
2016-Jun-24 10:33N 38°47' E 015°11'10 9.5
2016-Jun-24 09:32N 38°38' E 015°05'1111.1
2016-Jun-24 08:33N 38°33' E 014°53'6 6.4
2016-Jun-24 07:34N 38°28' E 014°57'20 6.7
2016-Jun-24 04:33N 38°13' E 015°15'0 0.0
2016-Jun-24 03:33N 38°13' E 015°15'0 0.0
2016-Jun-24 02:33N 38°13' E 015°15'0 0.0
2016-Jun-24 01:33N 38°13' E 015°15'0 0.0
2016-Jun-24 00:33N 38°13' E 015°15'0 0.0
2016-Jun-23 23:33N 38°13' E 015°15'0 0.0
2016-Jun-23 22:33N 38°13' E 015°15'0 0.0
2016-Jun-23 21:33N 38°13' E 015°15'0 0.0
2016-Jun-23 20:33N 38°13' E 015°15'0 0.0
2016-Jun-23 19:33N 38°13' E 015°15'0 0.0
2016-Jun-23 18:33N 38°13' E 015°15'0 0.3
2016-Jun-23 17:33N 38°13' E 015°15'1211.6
2016-Jun-23 16:34N 38°22' E 015°05'9 8.9
2016-Jun-23 15:33N 38°28' E 014°57'4 3.8
2016-Jun-23 14:33N 38°32' E 014°57'4 0.6
2016-Jun-23 08:29N 38°33' E 014°53'6 6.6
2016-Jun-23 07:33N 38°28' E 014°58'17 8.3
2016-Jun-23 05:33N 38°18' E 015°14'5 4.6
2016-Jun-23 04:34N 38°13' E 015°15'0 0.0
2016-Jun-23 03:33N 38°13' E 015°15'0 0.0
2016-Jun-23 02:33N 38°13' E 015°15'0 0.0
2016-Jun-23 01:34N 38°13' E 015°15'0 0.0
2016-Jun-23 00:33N 38°13' E 015°15'0 0.0
2016-Jun-22 23:34N 38°13' E 015°15'0 0.0
2016-Jun-22 22:33N 38°13' E 015°15'0 0.0
2016-Jun-22 21:33N 38°13' E 015°15'0 0.0
2016-Jun-22 20:34N 38°13' E 015°15'0 0.0
2016-Jun-22 19:33N 38°13' E 015°15'0 0.0
2016-Jun-22 18:34N 38°13' E 015°15'0 0.2
2016-Jun-22 17:33N 38°13' E 015°15'1211.7
2016-Jun-22 16:33N 38°22' E 015°05'9 8.6
2016-Jun-22 15:33N 38°28' E 014°58'4 3.8
2016-Jun-22 14:33N 38°32' E 014°57'17 3.9
2016-Jun-22 10:13N 38°33' E 014°35'14 8.2
2016-Jun-22 08:33N 38°33' E 014°53'6 6.3
2016-Jun-22 07:33N 38°28' E 014°57'5 4.7
2016-Jun-22 06:34N 38°24' E 015°01'1413.7
2016-Jun-22 05:33N 38°17' E 015°15'4 3.7
2016-Jun-22 04:33N 38°13' E 015°15'0 0.3
2016-Jun-22 03:33N 38°13' E 015°15'0 0.0
2016-Jun-22 02:33N 38°13' E 015°15'0 0.0
2016-Jun-22 01:33N 38°13' E 015°15'0 0.0
2016-Jun-22 00:33N 38°13' E 015°15'0 0.0
2016-Jun-21 23:33N 38°13' E 015°15'0 0.0
2016-Jun-21 22:33N 38°13' E 015°15'0 0.0
2016-Jun-21 21:33N 38°13' E 015°15'0 0.0
2016-Jun-21 20:33N 38°13' E 015°15'0 0.3
2016-Jun-21 19:33N 38°13' E 015°15'0 0.1
2016-Jun-21 18:33N 38°13' E 015°15'1110.6
2016-Jun-21 17:34N 38°21' E 015°06'9 9.4
2016-Jun-21 16:33N 38°28' E 014°58'5 5.0
2016-Jun-21 15:33N 38°33' E 014°55'6 6.4
2016-Jun-21 14:33N 38°36' E 015°02'9 9.2
2016-Jun-21 13:33N 38°44' E 015°08'6 5.8
2016-Jun-21 12:30N 38°48' E 015°14'3 2.6
2016-Jun-21 11:31N 38°47' E 015°11'1010.1
2016-Jun-21 10:31N 38°38' E 015°05'9 9.3
2016-Jun-21 09:32N 38°34' E 014°55'2 1.8
2016-Jun-21 08:31N 38°33' E 014°52'6 6.7
2016-Jun-21 07:33N 38°28' E 014°57'3 3.2
2016-Jun-21 06:32N 38°25' E 014°58'17 8.9
2016-Jun-21 04:33N 38°13' E 015°15'0 0.0
2016-Jun-21 03:33N 38°13' E 015°15'0 0.0
2016-Jun-21 02:33N 38°13' E 015°15'0 0.0
2016-Jun-21 01:33N 38°13' E 015°15'0 0.0
2016-Jun-21 00:33N 38°13' E 015°15'0 0.0
2016-Jun-20 23:33N 38°13' E 015°15'0 0.0
2016-Jun-20 22:33N 38°13' E 015°15'0 0.0
2016-Jun-20 21:33N 38°13' E 015°15'0 0.0
2016-Jun-20 20:33N 38°13' E 015°15'0 0.0
2016-Jun-20 19:33N 38°13' E 015°15'0 0.0
2016-Jun-20 18:33N 38°13' E 015°15'0 0.1
2016-Jun-20 17:33N 38°13' E 015°15'1211.6
2016-Jun-20 16:34N 38°22' E 015°05'9 8.6
2016-Jun-20 15:33N 38°28' E 014°58'4 3.8
2016-Jun-20 14:34N 38°32' E 014°57'4 0.6
2016-Jun-20 08:21N 38°33' E 014°53'6 8.0
2016-Jun-20 07:33N 38°29' E 014°59'4 4.4
2016-Jun-20 06:33N 38°25' E 014°58'1414.0
2016-Jun-20 05:34N 38°18' E 015°13'5 4.8
2016-Jun-20 04:33N 38°13' E 015°15'0 0.0
2016-Jun-20 03:33N 38°13' E 015°15'0 0.0
2016-Jun-20 02:33N 38°13' E 015°15'0 0.0
2016-Jun-20 01:33N 38°13' E 015°15'0 0.0
2016-Jun-20 00:33N 38°13' E 015°15'0 0.0
2016-Jun-19 23:33N 38°13' E 015°15'0 0.0
2016-Jun-19 22:33N 38°13' E 015°15'0 0.0
2016-Jun-19 21:33N 38°13' E 015°15'0 0.0
2016-Jun-19 20:33N 38°13' E 015°15'0 0.0
2016-Jun-19 19:33N 38°13' E 015°15'0 0.0
2016-Jun-19 18:33N 38°13' E 015°15'1 0.7
2016-Jun-19 17:33N 38°13' E 015°15'1312.5
2016-Jun-19 16:33N 38°22' E 015°05'8 8.3
2016-Jun-19 15:33N 38°28' E 014°57'4 3.6
2016-Jun-19 14:33N 38°32' E 014°58'20 8.4
2016-Jun-19 12:13N 38°33' E 014°33'1 0.7
2016-Jun-19 10:20N 38°33' E 014°31'17 9.1
2016-Jun-19 08:27N 38°33' E 014°53'7 7.2
2016-Jun-19 07:33N 38°29' E 014°59'4 4.1
2016-Jun-19 06:33N 38°25' E 014°58'1413.8
2016-Jun-19 05:33N 38°18' E 015°13'5 5.2
2016-Jun-19 04:33N 38°13' E 015°15'0 0.0
2016-Jun-19 03:33N 38°13' E 015°15'0 0.0
2016-Jun-19 02:33N 38°13' E 015°15'0 0.0
2016-Jun-19 01:33N 38°13' E 015°14'0 0.0
2016-Jun-19 00:33N 38°13' E 015°15'0 0.0
2016-Jun-18 23:33N 38°13' E 015°15'0 0.0
2016-Jun-18 22:33N 38°13' E 015°15'0 0.0
2016-Jun-18 21:33N 38°13' E 015°15'0 0.0
2016-Jun-18 20:33N 38°13' E 015°15'0 0.0
2016-Jun-18 19:33N 38°13' E 015°15'0 0.0
2016-Jun-18 18:33N 38°13' E 015°15'0 0.2
2016-Jun-18 17:34N 38°13' E 015°15'1211.8
2016-Jun-18 16:33N 38°22' E 015°05'8 8.3
2016-Jun-18 15:33N 38°28' E 014°58'6 6.0
2016-Jun-18 14:33N 38°33' E 014°53'8 6.6
2016-Jun-18 13:17N 38°33' E 014°43'6 7.4
2016-Jun-18 12:30N 38°34' E 014°35'5 2.6
2016-Jun-18 10:33N 38°32' E 014°29'18 8.7
2016-Jun-18 08:27N 38°33' E 014°53'6 7.1
2016-Jun-18 07:33N 38°28' E 014°58'3 3.3
2016-Jun-18 06:34N 38°25' E 014°58'1414.1
2016-Jun-18 05:33N 38°18' E 015°14'5 5.2
2016-Jun-18 04:33N 38°13' E 015°15'0 0.0
2016-Jun-18 03:33N 38°13' E 015°15'0 0.0
2016-Jun-18 02:33N 38°13' E 015°15'0 0.0
2016-Jun-18 01:33N 38°13' E 015°15'0 0.0
2016-Jun-18 00:33N 38°13' E 015°15'0 0.0
2016-Jun-17 23:33N 38°13' E 015°15'0 0.0
2016-Jun-17 22:33N 38°13' E 015°15'0 0.0
2016-Jun-17 21:33N 38°13' E 015°15'0 0.0
2016-Jun-17 20:33N 38°13' E 015°15'0 0.0
2016-Jun-17 19:33N 38°13' E 015°15'0 0.0
2016-Jun-17 18:33N 38°13' E 015°15'9 8.7
2016-Jun-17 17:33N 38°20' E 015°08'10 9.5
2016-Jun-17 16:33N 38°25' E 014°58'4 3.9
2016-Jun-17 15:33N 38°29' E 014°59'6 6.0
2016-Jun-17 14:32N 38°33' E 014°53'11 9.7
2016-Jun-17 13:27N 38°38' E 015°05'1011.2
2016-Jun-17 12:32N 38°47' E 015°11'3 2.6
2016-Jun-17 11:33N 38°48' E 015°14'5 4.7
2016-Jun-17 10:32N 38°45' E 015°10'  

Dump ship's entire track history